Time;durP1;ratioP1;P1;durP2;ratioP2;P2;SDS_P1;SDS_P2;PMS_P1;PMS_P2;Temp;Humidity;BMP_temperature;BMP_pressure;BME280_temperature;BME280_humidity;BME280_pressure;Samples;Min_cycle;Max_cycle;Signal;HPM_P1;HPM_P2
2023/07/21 00:00:17;;;;;;;2.08;1.30;;;;;;;-146.27;80.01;82131.09;5070447;28;20029;-71
2023/07/21 00:02:46;;;;;;;2.58;1.63;;;;;;;-146.27;80.93;82159.22;5070483;28;20032;-71
2023/07/21 00:05:13;;;;;;;1.60;1.33;;;;;;;-146.27;81.03;82171.25;5070420;28;20095;-70
2023/07/21 00:07:39;;;;;;;1.48;1.20;;;;;;;-146.27;80.92;82173.28;5069013;28;20039;-70
2023/07/21 00:10:07;;;;;;;2.53;1.40;;;;;;;-146.27;81.23;82171.25;5068686;28;20028;-70
2023/07/21 00:12:34;;;;;;;3.35;1.30;;;;;;;-146.27;81.22;82143.13;5069766;28;20131;-70
2023/07/21 00:15:00;;;;;;;3.08;1.67;;;;;;;-146.27;81.65;82135.09;5070024;28;20055;-71
2023/07/21 00:17:25;;;;;;;2.08;1.67;;;;;;;-146.27;81.55;82205.41;5069978;28;20492;-71
2023/07/21 00:19:51;;;;;;;2.63;1.70;;;;;;;-146.27;81.48;82191.34;5070174;28;20029;-70
2023/07/21 00:22:16;;;;;;;5.88;2.22;;;;;;;-146.27;81.54;82213.44;5070172;28;20032;-71
2023/07/21 00:24:42;;;;;;;2.50;2.05;;;;;;;-146.27;80.92;82161.22;5069450;28;20031;-71
2023/07/21 00:27:08;;;;;;;3.55;2.00;;;;;;;-146.27;80.72;82183.31;5070106;28;20514;-71
2023/07/21 00:29:33;;;;;;;3.22;2.40;;;;;;;-146.27;80.81;82167.25;5070010;28;20063;-70
2023/07/21 00:31:58;;;;;;;6.15;2.10;;;;;;;-146.27;80.97;82215.44;5070041;28;20077;-70
2023/07/21 00:34:24;;;;;;;2.70;1.90;;;;;;;-146.27;81.69;82167.25;5070001;28;20028;-71
2023/07/21 00:36:54;;;;;;;2.65;1.88;;;;;;;-146.27;81.91;82277.72;5070075;28;20032;-71
2023/07/21 00:39:19;;;;;;;11.73;2.15;;;;;;;-146.27;81.30;82231.53;5069837;28;20025;-71
2023/07/21 00:41:44;;;;;;;2.88;2.60;;;;;;;-146.27;81.39;82207.41;5070063;28;20016;-70
2023/07/21 00:44:10;;;;;;;6.85;4.45;;;;;;;-146.27;81.81;82205.41;5069857;28;20396;-70
2023/07/21 00:46:36;;;;;;;5.28;4.07;;;;;;;-146.27;81.80;82187.31;5069876;28;20024;-71
2023/07/21 00:49:02;;;;;;;3.35;2.78;;;;;;;-146.27;81.96;82187.31;5070074;28;20025;-71
2023/07/21 00:51:28;;;;;;;3.58;2.65;;;;;;;-146.27;82.20;82219.47;5070228;28;20579;-70
2023/07/21 00:53:54;;;;;;;4.13;3.05;;;;;;;-146.27;82.10;82187.31;5070018;28;20360;-71
2023/07/21 00:56:19;;;;;;;3.97;2.72;;;;;;;-146.27;82.68;82215.44;5068708;28;20078;-71
2023/07/21 00:58:45;;;;;;;3.75;2.80;;;;;;;-146.27;82.20;82175.28;5068410;28;20020;-70
2023/07/21 01:01:10;;;;;;;5.07;2.85;;;;;;;-146.27;82.55;82167.25;5069625;28;20071;-70
2023/07/21 01:03:39;;;;;;;3.40;3.10;;;;;;;-146.27;82.04;82129.06;5069761;28;20025;-71
2023/07/21 01:06:07;;;;;;;4.70;2.72;;;;;;;-146.27;81.72;82127.06;5070015;28;20361;-70
2023/07/21 01:08:33;;;;;;;4.07;2.92;;;;;;;-146.27;80.67;82086.91;5069786;28;20029;-70
2023/07/21 01:11:00;;;;;;;3.83;2.45;;;;;;;-146.27;80.96;82078.84;5069776;28;20032;-70
2023/07/21 01:13:26;;;;;;;5.10;2.80;;;;;;;-146.27;81.36;82102.97;5069466;28;20396;-71
2023/07/21 01:15:53;;;;;;;3.88;3.28;;;;;;;-146.27;80.70;82119.03;5069339;28;20035;-71
2023/07/21 01:18:20;;;;;;;3.30;2.55;;;;;;;-146.27;80.90;82155.19;5069526;28;20055;-71
2023/07/21 01:20:47;;;;;;;3.40;3.08;;;;;;;-146.27;81.30;82149.16;5051315;28;20035;-72
2023/07/21 01:23:26;;;;;;;3.40;3.10;;;;;;;-146.27;81.51;82165.22;5069596;28;20051;-70
2023/07/21 01:25:55;;;;;;;3.40;3.10;;;;;;;-146.27;82.45;82159.22;5069566;28;20061;-70
2023/07/21 01:28:20;;;;;;;6.43;3.17;;;;;;;-146.27;82.62;82215.44;5069580;28;20025;-69
2023/07/21 01:30:48;;;;;;;3.83;3.00;;;;;;;-146.27;82.87;82223.47;5069852;28;20356;-70
2023/07/21 01:33:18;;;;;;;4.72;2.95;;;;;;;-146.27;83.12;82245.59;5069274;28;20024;-70
2023/07/21 01:35:48;;;;;;;4.82;4.15;;;;;;;-146.27;83.31;82259.66;5068269;28;20074;-70
2023/07/21 01:38:15;;;;;;;3.88;3.05;;;;;;;-146.27;83.55;82273.72;5073330;28;20024;-70
2023/07/21 01:40:41;;;;;;;3.80;3.00;;;;;;;-146.27;84.18;82307.84;5073217;28;20530;-70
2023/07/21 01:43:07;;;;;;;5.50;3.20;;;;;;;-146.27;83.10;82233.53;5073038;28;20082;-70
2023/07/21 01:45:33;;;;;;;5.07;3.40;;;;;;;-146.27;83.09;82235.53;5072882;28;20028;-70
2023/07/21 01:47:59;;;;;;;3.67;2.92;;;;;;;-146.27;82.98;82255.63;5072844;28;20557;-69
2023/07/21 01:50:26;;;;;;;4.75;3.38;;;;;;;-146.27;83.23;82251.59;5073368;28;20021;-70
2023/07/21 01:52:53;;;;;;;5.28;3.08;;;;;;;-146.27;83.50;82257.63;5072774;28;20020;-70
2023/07/21 01:55:23;;;;;;;6.25;3.28;;;;;;;-146.27;83.79;82249.59;5072774;28;20468;-70
2023/07/21 01:57:55;;;;;;;5.72;3.30;;;;;;;-146.27;84.12;82243.56;5073046;28;20036;-71
2023/07/21 02:00:24;;;;;;;3.95;2.95;;;;;;;-146.27;84.54;82219.47;5072769;28;20024;-71
2023/07/21 02:02:51;;;;;;;5.53;3.08;;;;;;;-146.27;84.62;82275.72;5072788;28;20546;-70
2023/07/21 02:05:22;;;;;;;3.50;3.20;;;;;;;-146.27;84.47;82247.59;5073007;28;20028;-70
2023/07/21 02:07:48;;;;;;;5.13;3.95;;;;;;;-146.27;83.50;82251.59;5072938;28;20043;-70
2023/07/21 02:10:13;;;;;;;5.70;4.25;;;;;;;-146.27;83.86;82263.66;5072972;28;20017;-71
2023/07/21 02:12:39;;;;;;;6.53;3.50;;;;;;;-146.27;83.91;82267.69;5071975;28;20053;-70
2023/07/21 02:15:07;;;;;;;3.78;3.25;;;;;;;-146.27;84.72;82275.72;5072421;28;20043;-71
2023/07/21 02:17:36;;;;;;;3.90;3.40;;;;;;;-146.27;83.80;82275.72;5072332;28;20067;-71
2023/07/21 02:20:08;;;;;;;4.20;3.80;;;;;;;-146.27;84.50;82309.88;5072441;28;20120;-70
2023/07/21 02:22:34;;;;;;;4.47;3.03;;;;;;;-146.27;84.56;82299.81;5072652;28;20028;-71
2023/07/21 02:25:00;;;;;;;3.72;3.08;;;;;;;-146.27;84.54;82350.03;5072664;28;20025;-71
2023/07/21 02:27:26;;;;;;;4.10;3.05;;;;;;;-146.27;84.95;82299.81;5072519;28;20051;-70
2023/07/21 02:29:51;;;;;;;5.88;3.40;;;;;;;-146.27;84.76;82295.81;5072196;28;20016;-70
2023/07/21 02:32:17;;;;;;;5.43;2.70;;;;;;;-146.27;84.99;82303.84;5072005;28;20042;-70
2023/07/21 02:34:42;;;;;;;5.00;3.38;;;;;;;-146.27;85.18;82319.91;5072111;28;20051;-70
2023/07/21 02:37:07;;;;;;;4.35;2.90;;;;;;;-146.27;85.12;82307.84;5072154;28;20570;-70
2023/07/21 02:39:33;;;;;;;3.20;2.90;;;;;;;-146.27;85.29;82331.97;5070681;28;20026;-71
2023/07/21 02:42:01;;;;;;;5.45;3.22;;;;;;;-146.27;85.21;82303.84;5071823;28;20024;-69
2023/07/21 02:44:27;;;;;;;4.30;3.10;;;;;;;-146.27;85.04;82337.97;5071795;28;20033;-70
2023/07/21 02:46:53;;;;;;;3.80;2.95;;;;;;;-146.27;84.82;82348.03;5071961;28;20029;-70
2023/07/21 02:49:18;;;;;;;4.15;3.28;;;;;;;-146.27;85.07;82358.06;5071014;28;20032;-70
2023/07/21 02:51:44;;;;;;;5.03;2.90;;;;;;;-146.27;85.13;82331.97;5071947;28;20028;-71
2023/07/21 02:54:09;;;;;;;3.95;3.08;;;;;;;-146.27;85.20;82392.22;5072013;28;20032;-70
2023/07/21 02:56:35;;;;;;;4.95;3.35;;;;;;;-146.27;85.52;82400.25;5071860;28;20368;-70
2023/07/21 02:59:02;;;;;;;4.28;3.40;;;;;;;-146.27;85.77;82400.25;5071469;28;20020;-70
2023/07/21 03:01:28;;;;;;;4.88;4.38;;;;;;;-146.27;85.79;82424.38;5071476;28;20033;-70
2023/07/21 03:03:54;;;;;;;6.28;4.97;;;;;;;-146.27;86.21;82440.44;5071589;28;20032;-71
2023/07/21 03:06:20;;;;;;;4.63;3.88;;;;;;;-146.27;86.59;82490.66;5071773;28;20035;-71
2023/07/21 03:08:45;;;;;;;4.20;3.50;;;;;;;-146.27;87.50;82460.53;5071566;28;20460;-70
2023/07/21 03:11:13;;;;;;;4.50;3.40;;;;;;;-146.27;86.92;82440.44;5069797;28;20086;-71
2023/07/21 03:13:38;;;;;;;3.60;3.30;;;;;;;-146.27;86.58;82460.53;5071349;28;20055;-71
2023/07/21 03:16:04;;;;;;;3.72;3.17;;;;;;;-146.27;86.66;82440.44;5071187;28;20052;-70
2023/07/21 03:18:29;;;;;;;3.80;3.00;;;;;;;-146.27;86.86;82494.66;5071289;28;20025;-70
2023/07/21 03:21:00;;;;;;;3.35;3.00;;;;;;;-146.27;86.88;82512.75;5071544;28;20028;-70
2023/07/21 03:23:26;;;;;;;6.10;3.35;;;;;;;-146.27;87.34;82486.63;5071170;28;20089;-71
2023/07/21 03:25:51;;;;;;;3.95;3.20;;;;;;;-146.27;87.81;82518.78;5071365;28;20115;-70
2023/07/21 03:28:16;;;;;;;3.40;3.10;;;;;;;-146.27;87.94;82506.72;5071006;28;20576;-71
2023/07/21 03:30:43;;;;;;;5.90;3.33;;;;;;;-146.27;88.13;82522.78;5070946;28;20025;-70
2023/07/21 03:33:08;;;;;;;4.82;3.28;;;;;;;-146.27;88.13;82571.00;5070936;28;20033;-70
2023/07/21 03:35:34;;;;;;;5.07;3.20;;;;;;;-146.27;87.91;82564.97;5071149;28;20035;-71
2023/07/21 03:38:00;;;;;;;4.68;3.17;;;;;;;-146.27;87.86;82589.09;5070766;28;20039;-71
2023/07/21 03:40:25;;;;;;;4.32;3.30;;;;;;;-146.27;88.78;82571.00;5070915;28;20051;-70
2023/07/21 03:42:52;;;;;;;4.18;3.42;;;;;;;-146.27;88.91;82585.06;5069357;28;20085;-71
2023/07/21 03:45:18;;;;;;;5.18;3.97;;;;;;;-146.27;89.51;82500.69;5070788;28;20017;-70
2023/07/21 03:47:43;;;;;;;4.63;3.63;;;;;;;-146.27;89.00;82544.91;5071117;28;20024;-72
2023/07/21 03:50:09;;;;;;;6.05;3.65;;;;;;;-146.27;89.13;82581.06;5070394;28;20034;-71
2023/07/21 03:52:34;;;;;;;4.03;3.22;;;;;;;-146.27;88.96;82548.91;5070657;28;20488;-72
2023/07/21 03:55:00;;;;;;;3.60;3.20;;;;;;;-146.27;88.76;82538.88;5070246;28;20024;-71
2023/07/21 03:57:25;;;;;;;4.55;3.58;;;;;;;-146.27;89.28;82540.88;5070122;28;20036;-71
2023/07/21 03:59:51;;;;;;;8.13;3.60;;;;;;;-146.27;89.32;82548.91;5070135;28;20431;-71
2023/07/21 04:02:17;;;;;;;5.35;4.30;;;;;;;-146.27;89.45;82534.84;5070149;28;20035;-71
2023/07/21 04:04:44;;;;;;;4.28;3.85;;;;;;;-146.27;90.02;82496.69;5070084;28;20028;-71
2023/07/21 04:07:10;;;;;;;4.15;3.72;;;;;;;-146.27;90.42;82490.66;5070071;28;20020;-71
2023/07/21 04:09:36;;;;;;;6.47;3.92;;;;;;;-146.27;90.47;82480.59;5069879;28;20074;-71
2023/07/21 04:12:02;;;;;;;4.72;4.03;;;;;;;-146.27;90.29;82480.59;5069993;28;20051;-71
2023/07/21 04:14:27;;;;;;;6.30;4.20;;;;;;;-146.27;90.09;82458.50;5069952;28;20104;-71
2023/07/21 04:16:54;;;;;;;7.20;4.47;;;;;;;-146.27;90.57;82472.56;5069045;28;20036;-71
2023/07/21 04:19:20;;;;;;;8.55;3.90;;;;;;;-146.27;89.82;82408.28;5069968;28;20081;-71
2023/07/21 04:21:46;;;;;;;7.18;4.50;;;;;;;-146.27;89.18;82384.19;5069697;28;20036;-71
2023/07/21 04:24:11;;;;;;;6.82;4.80;;;;;;;-146.27;89.13;82388.22;5069942;28;20458;-71
2023/07/21 04:26:37;;;;;;;6.55;4.45;;;;;;;-146.27;88.52;82368.13;5069981;28;20107;-70
2023/07/21 04:29:03;;;;;;;7.75;4.70;;;;;;;-146.27;88.52;82364.09;5069693;28;20016;-70
2023/07/21 04:31:28;;;;;;;6.15;5.35;;;;;;;-146.27;88.08;82394.22;5069677;28;20456;-71
2023/07/21 04:33:57;;;;;;;7.72;4.57;;;;;;;-146.27;89.64;82356.06;5069792;28;20114;-71
2023/07/21 04:36:23;;;;;;;6.10;4.82;;;;;;;-146.27;89.59;82352.03;5070025;28;20711;-70
2023/07/21 04:38:48;;;;;;;5.93;4.57;;;;;;;-146.27;89.67;82396.25;5069939;28;20071;-70
2023/07/21 04:41:14;;;;;;;7.28;5.50;;;;;;;-146.27;89.71;82378.16;5069832;28;20422;-70
2023/07/21 04:43:40;;;;;;;4.85;4.35;;;;;;;-146.27;89.51;82406.28;5068388;28;20476;-71
2023/07/21 04:46:05;;;;;;;7.55;4.93;;;;;;;-146.27;89.55;82394.22;5069781;28;20029;-70
2023/07/21 04:48:30;;;;;;;7.63;5.50;;;;;;;-146.27;89.80;82406.28;5069495;28;20024;-70
2023/07/21 04:50:56;;;;;;;7.70;5.32;;;;;;;-146.27;90.14;82428.38;5069725;28;20457;-70
2023/07/21 04:53:22;;;;;;;5.68;4.25;;;;;;;-146.27;89.99;82424.38;5068665;28;20510;-71
2023/07/21 04:55:57;;;;;;;6.65;4.88;;;;;;;-146.27;89.75;82388.22;5069675;28;20373;-71
2023/07/21 04:58:23;;;;;;;7.43;4.95;;;;;;;-146.27;89.82;82356.06;5069687;28;20074;-71
2023/07/21 05:00:48;;;;;;;7.15;5.05;;;;;;;-146.27;89.28;82299.81;5069501;28;20254;-70
2023/07/21 05:03:14;;;;;;;5.82;5.18;;;;;;;-146.27;89.03;82348.03;5069671;28;20059;-70
2023/07/21 05:05:39;;;;;;;5.85;3.65;;;;;;;-146.27;89.37;82360.09;5069379;28;20029;-71
2023/07/21 05:08:05;;;;;;;4.70;3.85;;;;;;;-146.27;88.54;82285.75;5068103;28;20079;-71
2023/07/21 05:10:31;;;;;;;4.03;3.63;;;;;;;-146.27;87.31;82275.72;5069965;28;20020;-70
2023/07/21 05:12:57;;;;;;;5.60;3.85;;;;;;;-146.27;87.59;82267.69;5072709;28;20097;-71
2023/07/21 05:15:24;;;;;;;5.80;4.53;;;;;;;-146.27;87.09;82231.53;5073092;28;20028;-70
2023/07/21 05:17:50;;;;;;;6.57;5.05;;;;;;;-146.27;86.62;82281.75;5072089;28;20025;-71
2023/07/21 05:20:16;;;;;;;9.45;5.20;;;;;;;-146.27;86.58;82295.81;5073505;28;20434;-70
2023/07/21 05:22:41;;;;;;;7.57;4.38;;;;;;;-146.27;87.43;82273.72;5073261;28;20024;-71
2023/07/21 05:25:09;;;;;;;8.80;4.80;;;;;;;-146.27;87.35;82261.66;5073300;28;20472;-71
2023/07/21 05:27:34;;;;;;;9.38;5.13;;;;;;;-146.27;87.17;82229.50;5053255;28;20055;-71
2023/07/21 05:30:00;;;;;;;7.40;5.28;;;;;;;-146.27;85.42;82239.56;5053353;28;20484;-71
2023/07/21 05:32:25;;;;;;;7.38;5.10;;;;;;;-146.27;85.04;82235.53;5053222;28;20036;-71
2023/07/21 05:34:50;;;;;;;10.93;5.93;;;;;;;-146.27;84.66;82255.63;5053421;28;20033;-71
2023/07/21 05:37:16;;;;;;;6.35;4.93;;;;;;;-146.27;85.34;82255.63;5053502;28;20459;-70
2023/07/21 05:39:42;;;;;;;9.57;5.22;;;;;;;-146.27;84.56;82299.81;5053765;28;20039;-71
2023/07/21 05:42:08;;;;;;;9.32;5.55;;;;;;;-146.27;84.06;82233.53;5071279;28;20024;-70
2023/07/21 05:44:33;;;;;;;12.18;6.25;;;;;;;-146.27;84.02;82219.47;5072983;28;20024;-70
2023/07/21 05:46:59;;;;;;;8.43;5.72;;;;;;;-146.27;83.62;82235.53;5072885;28;20111;-71
2023/07/21 05:49:25;;;;;;;8.35;5.75;;;;;;;-146.27;84.24;82235.53;5072825;28;20433;-70
2023/07/21 05:51:51;;;;;;;11.90;7.15;;;;;;;-146.27;84.36;82239.56;5072679;28;20020;-70
2023/07/21 05:54:16;;;;;;;10.57;6.90;;;;;;;-146.27;84.55;82219.47;5072687;28;20037;-70
2023/07/21 05:56:42;;;;;;;10.43;7.40;;;;;;;-146.27;83.50;82187.31;5072669;28;20096;-71
2023/07/21 05:59:07;;;;;;;10.98;7.43;;;;;;;-146.27;82.50;82207.41;5072728;28;20017;-70
2023/07/21 06:01:36;;;;;;;10.50;7.43;;;;;;;-146.27;81.91;82191.34;5072805;28;20059;-70
2023/07/21 06:04:03;;;;;;;10.02;7.25;;;;;;;-146.27;82.11;82201.38;5072670;28;20484;-70
2023/07/21 06:06:29;;;;;;;10.88;7.57;;;;;;;-146.27;82.06;82159.22;5071090;28;20024;-71
2023/07/21 06:08:55;;;;;;;11.48;7.28;;;;;;;-146.27;82.34;82147.16;5071723;28;20481;-70
2023/07/21 06:11:20;;;;;;;11.00;7.85;;;;;;;-146.27;82.04;82149.16;5072218;28;20052;-71
2023/07/21 06:13:46;;;;;;;14.77;8.15;;;;;;;-146.27;82.22;82149.16;5072585;28;20128;-71
2023/07/21 06:16:11;;;;;;;14.05;7.93;;;;;;;-146.27;80.89;82111.00;5072631;28;20422;-71
2023/07/21 06:18:36;;;;;;;12.65;7.57;;;;;;;-146.27;81.19;82117.03;5072275;28;20112;-71
2023/07/21 06:21:05;;;;;;;12.32;7.40;;;;;;;-146.27;80.99;82125.06;5072388;28;20025;-70
2023/07/21 06:23:30;;;;;;;11.20;7.43;;;;;;;-146.27;81.48;82129.06;5071360;28;20379;-71
2023/07/21 06:25:55;;;;;;;9.05;7.03;;;;;;;-146.27;82.90;82131.09;5072289;28;20056;-71
2023/07/21 06:28:21;;;;;;;11.32;7.32;;;;;;;-146.27;82.68;82090.91;5072279;28;20366;-70
2023/07/21 06:30:47;;;;;;;11.50;7.78;;;;;;;-146.27;82.37;82070.81;5071476;28;20103;-71
2023/07/21 06:33:13;;;;;;;15.43;7.55;;;;;;;-146.27;82.10;82070.81;5071272;28;20055;-70
2023/07/21 06:35:38;;;;;;;14.85;7.43;;;;;;;-146.27;80.36;82048.72;5072138;28;20425;-70
2023/07/21 06:38:05;;;;;;;10.07;7.03;;;;;;;-146.27;80.31;82024.63;5071711;28;20021;-71
2023/07/21 06:40:30;;;;;;;9.25;6.63;;;;;;;-146.27;80.04;82022.63;5071871;28;20024;-71
2023/07/21 06:42:56;;;;;;;14.43;7.60;;;;;;;-146.27;77.39;82044.72;5072084;28;20409;-71
2023/07/21 06:45:21;;;;;;;10.70;7.10;;;;;;;-146.27;78.77;82022.63;5071907;28;20103;-71
2023/07/21 06:47:47;;;;;;;11.77;7.25;;;;;;;-146.27;79.06;81996.50;5071858;28;20039;-71
2023/07/21 06:50:12;;;;;;;11.13;7.35;;;;;;;-146.27;79.04;81994.50;5069906;28;20111;-71
2023/07/21 06:52:39;;;;;;;14.15;7.35;;;;;;;-146.27;78.49;81966.38;5071592;28;20062;-71
2023/07/21 06:55:05;;;;;;;8.95;5.43;;;;;;;-146.27;75.60;82002.53;5071762;28;20028;-71
2023/07/21 06:57:31;;;;;;;15.15;6.05;;;;;;;-146.27;75.34;81936.25;5071538;28;20020;-71
2023/07/21 06:59:57;;;;;;;10.27;6.15;;;;;;;-146.27;76.10;81962.34;5071606;28;20499;-71
2023/07/21 07:02:22;;;;;;;8.32;4.95;;;;;;;-146.27;74.93;81896.06;5070009;28;20082;-71
2023/07/21 07:04:48;;;;;;;6.78;4.40;;;;;;;-146.27;72.98;81948.31;5071700;28;20017;-71
2023/07/21 07:07:15;;;;;;;5.93;4.43;;;;;;;-146.27;73.37;81910.13;5071328;28;20107;-71
2023/07/21 07:09:41;;;;;;;8.38;5.00;;;;;;;-146.27;73.35;81890.06;5071108;28;20025;-71
2023/07/21 07:12:08;;;;;;;14.55;5.20;;;;;;;-146.27;72.24;81906.13;5071315;28;20052;-71
2023/07/21 07:14:33;;;;;;;6.13;4.38;;;;;;;-146.27;70.66;81892.06;5070949;28;20094;-71
2023/07/21 07:16:58;;;;;;;6.10;4.15;;;;;;;-146.27;71.64;81857.91;5071325;28;20052;-71
2023/07/21 07:19:24;;;;;;;9.05;3.63;;;;;;;-146.27;71.00;81849.88;5071167;28;20022;-71
2023/07/21 07:21:49;;;;;;;6.85;3.65;;;;;;;-146.27;72.35;81857.91;5071258;28;20024;-71
2023/07/21 07:24:14;;;;;;;4.97;2.75;;;;;;;-146.27;71.73;81787.63;5071025;28;20031;-70
2023/07/21 07:26:40;;;;;;;7.35;3.03;;;;;;;-146.27;69.62;81821.75;5070696;28;20031;-71
2023/07/21 07:29:05;;;;;;;7.50;3.42;;;;;;;-146.27;69.32;81829.78;5070809;28;20108;-71
2023/07/21 07:31:31;;;;;;;6.82;3.40;;;;;;;-146.27;69.06;81731.38;5070878;28;20025;-70
2023/07/21 07:33:57;;;;;;;3.97;3.30;;;;;;;-146.27;71.19;81787.63;5069475;28;20086;-71
2023/07/21 07:36:23;;;;;;;3.95;2.80;;;;;;;-146.27;69.88;81767.53;5070832;28;20468;-71
2023/07/21 07:38:48;;;;;;;5.35;2.53;;;;;;;-146.27;68.77;81751.47;5069926;28;20128;-72
2023/07/21 07:41:14;;;;;;;5.15;2.97;;;;;;;-146.27;67.84;81781.59;5069050;28;20029;-71
2023/07/21 07:43:39;;;;;;;3.80;2.88;;;;;;;-146.27;68.88;81733.38;5070648;28;20020;-71
2023/07/21 07:46:08;;;;;;;6.72;2.05;;;;;;;-146.27;66.92;81701.25;5070538;28;20055;-71
2023/07/21 07:48:34;;;;;;;2.08;1.83;;;;;;;-146.27;66.19;81709.28;5070459;28;20101;-71
2023/07/21 07:51:04;;;;;;;3.45;1.50;;;;;;;-146.27;63.25;81693.22;5070411;28;20456;-71
2023/07/21 07:53:35;;;;;;;3.17;1.20;;;;;;;-146.27;61.99;81729.38;5070374;28;20024;-71
2023/07/21 07:56:01;;;;;;;1.92;1.23;;;;;;;-146.27;64.01;81630.97;5069888;28;20108;-71
2023/07/21 07:58:26;;;;;;;1.80;1.30;;;;;;;-146.27;64.29;81655.06;5070065;28;20150;-71
2023/07/21 08:00:55;;;;;;;2.90;1.30;;;;;;;-146.27;61.90;81604.84;5070267;28;20107;-71
2023/07/21 08:03:21;;;;;;;5.05;1.33;;;;;;;-146.27;62.33;81657.06;5070271;28;20093;-71
2023/07/21 08:05:48;;;;;;;2.58;1.10;;;;;;;-146.27;61.98;81624.94;5070326;28;20114;-71
2023/07/21 08:08:13;;;;;;;2.72;1.17;;;;;;;-146.27;59.16;81616.91;5070271;28;20028;-71
2023/07/21 08:10:40;;;;;;;1.40;0.90;;;;;;;-146.27;58.09;81578.75;5070116;28;20020;-71
2023/07/21 08:13:08;;;;;;;3.22;1.25;;;;;;;-146.27;57.85;81588.78;5069542;28;20774;-71
2023/07/21 08:15:33;;;;;;;2.58;1.20;;;;;;;-146.27;59.96;81564.69;5068859;28;20028;-71
2023/07/21 08:17:59;;;;;;;2.38;1.20;;;;;;;-146.27;58.23;81556.66;5069387;28;20103;-72
2023/07/21 08:20:24;;;;;;;2.63;1.23;;;;;;;-146.27;59.84;81564.69;5069562;28;20024;-72
2023/07/21 08:22:54;;;;;;;2.05;1.50;;;;;;;-146.27;60.86;81532.53;5069403;28;20524;-72
2023/07/21 08:25:19;;;;;;;2.25;1.13;;;;;;;-146.27;58.47;81560.66;5068657;28;20027;-71
2023/07/21 08:27:45;;;;;;;4.82;1.25;;;;;;;-146.27;61.07;81528.53;5069501;28;20492;-71
2023/07/21 08:30:11;;;;;;;1.88;1.30;;;;;;;-146.27;59.82;81532.53;5068772;28;20059;-71
2023/07/21 08:32:38;;;;;;;2.08;1.33;;;;;;;-146.27;59.02;81524.50;5069310;28;20063;-71
2023/07/21 08:35:05;;;;;;;1.13;1.00;;;;;;;-146.27;57.63;81570.69;5066201;28;20028;-71
2023/07/21 08:37:30;;;;;;;2.40;1.10;;;;;;;-146.27;56.99;81548.59;5069008;28;20025;-70
2023/07/21 08:39:56;;;;;;;1.20;0.75;;;;;;;-146.27;57.33;81556.66;5069320;28;20035;-70
2023/07/21 08:42:24;;;;;;;1.33;1.10;;;;;;;-146.27;57.42;81570.69;5069417;28;20043;-71
2023/07/21 08:44:52;;;;;;;2.10;1.25;;;;;;;-146.27;58.47;81522.50;5069638;28;20032;-70
2023/07/21 08:47:18;;;;;;;2.92;1.20;;;;;;;-146.27;58.62;81540.56;5068991;28;20021;-70
2023/07/21 08:49:44;;;;;;;1.70;1.50;;;;;;;-146.27;58.02;81520.50;5069616;28;20473;-70
2023/07/21 08:52:09;;;;;;;1.67;1.58;;;;;;;-146.27;57.34;81470.28;5069812;28;20028;-70
2023/07/21 08:54:35;;;;;;;3.03;1.50;;;;;;;-146.27;55.99;81508.44;5069594;28;20526;-71
2023/07/21 08:57:00;;;;;;;2.85;1.50;;;;;;;-146.27;56.58;81460.25;5069438;28;20293;-70
2023/07/21 08:59:26;;;;;;;5.03;1.50;;;;;;;-146.27;58.97;81363.84;5069639;28;20043;-71
2023/07/21 09:01:51;;;;;;;3.28;1.60;;;;;;;-146.27;60.90;81317.66;5069598;28;20513;-71
2023/07/21 09:04:22;;;;;;;1.90;1.20;;;;;;;-146.27;56.98;81247.38;5069323;28;20055;-71
2023/07/21 09:06:56;;;;;;;4.40;1.40;;;;;;;-146.27;54.39;81167.03;5069416;28;20103;-71
2023/07/21 09:09:24;;;;;;;1.63;1.52;;;;;;;-146.27;54.27;81165.03;5069325;28;20020;-71
2023/07/21 09:11:58;;;;;;;1.70;1.35;;;;;;;-146.27;53.79;81134.91;5069301;28;20052;-71
2023/07/21 09:14:34;;;;;;;3.13;1.27;;;;;;;-146.27;52.78;81110.81;5069123;28;20107;-70
2023/07/21 09:17:03;;;;;;;3.15;1.20;;;;;;;-146.27;51.26;81036.50;5069287;28;20802;-70
2023/07/21 09:19:28;;;;;;;3.13;1.42;;;;;;;-146.27;53.21;81026.47;5069603;28;20474;-70
2023/07/21 09:21:57;;;;;;;2.92;1.25;;;;;;;-146.27;50.67;81122.84;5069391;28;20158;-71
2023/07/21 09:24:23;;;;;;;1.70;1.52;;;;;;;-146.27;50.94;81098.75;5068300;28;20488;-71
2023/07/21 09:26:48;;;;;;;3.35;1.50;;;;;;;-146.27;52.53;81114.81;5069556;28;20120;-71
2023/07/21 09:29:21;;;;;;;3.28;1.50;;;;;;;-146.27;52.59;81267.44;5069745;28;20361;-71
2023/07/21 09:31:47;;;;;;;3.67;1.45;;;;;;;-146.27;53.99;81331.72;5068696;28;20029;-71
2023/07/21 09:34:12;;;;;;;2.78;1.40;;;;;;;-146.27;56.15;81337.75;5067399;28;20082;-71
2023/07/21 09:36:45;;;;;;;1.48;1.33;;;;;;;-146.27;57.09;81404.00;5067455;28;20028;-70
2023/07/21 09:39:14;;;;;;;3.67;1.50;;;;;;;-146.27;59.92;81478.31;5068010;28;20404;-69
2023/07/21 09:41:41;;;;;;;4.43;1.50;;;;;;;-146.27;63.40;81474.31;5069206;28;20024;-72
2023/07/21 09:44:07;;;;;;;3.58;1.15;;;;;;;-146.27;68.33;81604.84;5068989;28;20585;-72
2023/07/21 09:46:33;;;;;;;2.30;0.95;;;;;;;-146.27;68.64;81641.00;5068563;28;20059;-70
2023/07/21 09:48:58;;;;;;;4.57;1.10;;;;;;;-146.27;69.96;81620.91;5068829;28;20086;-70
2023/07/21 09:51:26;;;;;;;4.88;1.50;;;;;;;-146.27;70.88;81653.06;5069155;28;20021;-71
2023/07/21 09:53:53;;;;;;;1.50;0.80;;;;;;;-146.27;69.98;81606.84;5068023;28;20384;-72
2023/07/21 09:56:20;;;;;;;1.38;1.00;;;;;;;-146.27;70.25;81576.72;5068770;28;20033;-70
2023/07/21 09:58:51;;;;;;;2.13;0.95;;;;;;;-146.27;68.93;81584.75;5071979;28;20044;-69
2023/07/21 10:01:17;;;;;;;2.35;0.80;;;;;;;-146.27;66.87;81540.56;5072449;28;20037;-72
2023/07/21 10:03:44;;;;;;;3.03;0.88;;;;;;;-146.27;64.98;81512.47;5072748;28;20028;-71
2023/07/21 10:06:09;;;;;;;0.85;0.80;;;;;;;-146.27;64.40;81516.47;5073179;28;20504;-71
2023/07/21 10:08:36;;;;;;;1.08;0.90;;;;;;;-146.27;61.66;81496.41;5072519;28;20051;-71
2023/07/21 10:11:05;;;;;;;2.00;0.90;;;;;;;-146.27;61.63;81504.44;5072603;28;20054;-71
2023/07/21 10:13:34;;;;;;;1.85;1.00;;;;;;;-146.27;61.06;81530.53;5071818;28;20060;-73
2023/07/21 10:16:05;;;;;;;2.13;0.70;;;;;;;-146.27;59.87;81542.59;5071866;28;20035;-72
2023/07/21 10:18:31;;;;;;;2.15;1.15;;;;;;;-146.27;61.81;81464.25;5071775;28;20059;-71
2023/07/21 10:20:57;;;;;;;2.47;1.10;;;;;;;-146.27;67.11;81530.53;5071770;28;20117;-71
2023/07/21 10:23:29;;;;;;;4.32;1.35;;;;;;;-146.27;68.19;81496.41;5071933;28;20100;-72
2023/07/21 10:26:07;;;;;;;3.83;1.27;;;;;;;-146.27;70.71;81482.34;5072102;28;20032;-71
2023/07/21 10:28:38;;;;;;;2.15;1.15;;;;;;;-146.27;68.46;81472.28;5070656;28;20035;-72
2023/07/21 10:31:24;;;;;;;3.97;1.10;;;;;;;-146.27;68.21;81504.44;5071673;28;20077;-71
2023/07/21 10:34:06;;;;;;;1.15;0.93;;;;;;;-146.27;68.71;81524.50;5071685;28;20480;-73
2023/07/21 10:36:52;;;;;;;0.93;0.90;;;;;;;-146.27;69.14;81492.38;5072188;28;20039;-71
2023/07/21 10:39:23;;;;;;;4.50;0.98;;;;;;;-146.27;69.52;81540.56;5072020;28;20162;-73
2023/07/21 10:42:10;;;;;;;2.83;0.95;;;;;;;-146.27;67.65;81552.63;5072140;28;20032;-73
2023/07/21 10:44:41;;;;;;;3.20;1.27;;;;;;;-146.27;68.44;81492.38;5071859;28;20114;-72
2023/07/21 10:47:15;;;;;;;3.70;1.10;;;;;;;-146.27;68.35;81393.97;5071858;28;20024;-72
2023/07/21 10:49:42;;;;;;;1.70;1.30;;;;;;;-146.27;61.48;81315.66;5071519;28;20067;-72
2023/07/21 10:52:08;;;;;;;0.80;0.80;;;;;;;-146.27;58.18;81243.34;5072169;28;20040;-71
2023/07/21 10:54:35;;;;;;;1.45;0.98;;;;;;;-146.27;51.54;81291.53;5071662;28;20400;-72
2023/07/21 10:57:00;;;;;;;1.00;0.90;;;;;;;-146.27;51.63;81275.47;5071660;28;20100;-71
2023/07/21 10:59:30;;;;;;;1.67;1.00;;;;;;;-146.27;54.22;81383.94;5071727;28;20184;-69
2023/07/21 11:01:56;;;;;;;2.05;1.17;;;;;;;-146.27;56.24;81341.75;5071194;28;20111;-69
2023/07/21 11:04:22;;;;;;;4.28;1.42;;;;;;;-146.27;57.90;81347.78;5071361;28;20024;-69
2023/07/21 11:06:50;;;;;;;2.00;1.30;;;;;;;-146.27;59.98;81371.88;5070810;28;20036;-68
2023/07/21 11:09:17;;;;;;;2.40;1.55;;;;;;;-146.27;60.75;81339.75;5068895;28;20518;-69
2023/07/21 11:11:46;;;;;;;3.17;1.55;;;;;;;-146.27;61.06;81263.44;5071152;28;20530;-69
2023/07/21 11:14:12;;;;;;;8.75;2.42;;;;;;;-146.27;60.53;81295.56;5071324;28;20035;-69